createdAt,value
2023-03-12T00:01:59.726Z,42.14
2023-03-12T00:04:27.254Z,42.24
2023-03-12T00:06:54.386Z,42.52
2023-03-12T00:09:20.955Z,42.04
2023-03-12T00:11:47.540Z,42.03
2023-03-12T00:14:14.122Z,41.98
2023-03-12T00:16:40.818Z,42.36
2023-03-12T00:19:07.412Z,42.18
2023-03-12T00:21:33.994Z,42.08
2023-03-12T00:24:00.513Z,42.10
2023-03-12T00:26:27.047Z,42.27
2023-03-12T00:28:53.816Z,42.56
2023-03-12T00:31:27.551Z,42.12
2023-03-12T00:33:54.571Z,42.62
2023-03-12T00:36:24.854Z,42.12
2023-03-12T00:38:52.299Z,42.36
2023-03-12T00:41:21.854Z,42.06
2023-03-12T00:43:49.258Z,42.41
2023-03-12T00:46:15.849Z,42.67
2023-03-12T00:48:42.422Z,42.02
2023-03-12T00:51:09.469Z,42.54
2023-03-12T00:53:36.161Z,42.27
2023-03-12T00:56:04.126Z,41.78
2023-03-12T00:58:31.020Z,42.21
2023-03-12T01:00:57.764Z,41.72
2023-03-12T01:03:24.565Z,42.15
2023-03-12T01:05:54.604Z,41.69
2023-03-12T01:08:22.033Z,42.11
2023-03-12T01:10:48.585Z,41.59
2023-03-12T01:13:15.218Z,41.40
2023-03-12T01:15:41.753Z,41.88
2023-03-12T01:18:08.698Z,41.94
2023-03-12T01:20:35.380Z,41.80
2023-03-12T01:23:01.917Z,41.50
2023-03-12T01:25:28.461Z,41.98
2023-03-12T01:27:55.115Z,41.73
2023-03-12T01:30:21.651Z,41.91
2023-03-12T01:32:48.311Z,41.93
2023-03-12T01:35:14.878Z,41.46
2023-03-12T01:37:41.383Z,41.87
2023-03-12T01:40:08.367Z,41.49
2023-03-12T01:42:34.869Z,41.57
2023-03-12T01:45:03.252Z,41.51
2023-03-12T01:47:33.301Z,42.42
2023-03-12T01:50:01.322Z,41.16
2023-03-12T01:52:32.001Z,41.19
2023-03-12T01:55:07.357Z,41.83
2023-03-12T01:57:43.111Z,42.05
2023-03-12T02:00:13.821Z,41.34
2023-03-12T02:02:41.392Z,41.55
2023-03-12T02:05:17.569Z,41.84
2023-03-12T02:07:44.108Z,41.83
2023-03-12T02:10:11.721Z,41.44
2023-03-12T02:12:38.326Z,42.07
2023-03-12T02:15:05.766Z,41.38
2023-03-12T02:17:32.586Z,41.80
2023-03-12T02:20:25.491Z,41.92
2023-03-12T02:23:03.138Z,41.56
2023-03-12T02:25:36.956Z,41.23
2023-03-12T02:28:05.112Z,42.18
2023-03-12T02:30:32.014Z,41.59
2023-03-12T02:33:01.404Z,41.30
2023-03-12T02:35:27.960Z,41.20
2023-03-12T02:37:56.253Z,42.18
2023-03-12T02:40:29.267Z,41.10
2023-03-12T02:42:57.145Z,42.30
2023-03-12T02:45:25.776Z,41.93
2023-03-12T02:47:52.727Z,41.27
2023-03-12T02:50:19.399Z,41.89
2023-03-12T02:52:46.039Z,41.64
2023-03-12T02:55:12.642Z,42.09
2023-03-12T02:57:39.279Z,41.48
2023-03-12T03:00:11.966Z,41.90
2023-03-12T03:02:39.885Z,42.08
2023-03-12T03:05:06.994Z,41.66
2023-03-12T03:07:33.626Z,41.07
2023-03-12T03:10:04.457Z,40.84
2023-03-12T03:12:31.839Z,41.12
2023-03-12T03:14:58.517Z,41.05
2023-03-12T03:17:25.476Z,40.94
2023-03-12T03:19:52.437Z,40.28
2023-03-12T03:22:20.495Z,40.17
2023-03-12T03:24:47.486Z,40.38
2023-03-12T03:27:14.240Z,40.85
2023-03-12T03:29:41.105Z,40.70
2023-03-12T03:32:07.719Z,40.78
2023-03-12T03:34:34.330Z,40.21
2023-03-12T03:37:00.847Z,40.36
2023-03-12T03:39:29.071Z,40.56
2023-03-12T03:41:55.788Z,40.35
2023-03-12T03:44:23.093Z,39.97
2023-03-12T03:46:50.008Z,39.99
2023-03-12T03:49:16.967Z,40.31
2023-03-12T03:51:43.843Z,39.93
2023-03-12T03:54:11.315Z,39.65
2023-03-12T03:56:37.851Z,39.74
2023-03-12T03:59:04.787Z,39.75
2023-03-12T04:01:31.482Z,39.33
2023-03-12T04:03:59.186Z,39.51
2023-03-12T04:06:26.381Z,40.01
2023-03-12T04:08:53.048Z,40.56
2023-03-12T04:11:21.180Z,39.92
2023-03-12T04:13:48.485Z,40.86
2023-03-12T04:16:16.197Z,40.12
2023-03-12T04:18:43.211Z,40.26
2023-03-12T04:21:12.016Z,40.19
2023-03-12T04:23:39.416Z,40.31
2023-03-12T04:26:06.700Z,40.47
2023-03-12T04:28:34.396Z,40.43
2023-03-12T04:31:06.948Z,41.31
2023-03-12T04:33:36.376Z,41.07
2023-03-12T04:36:03.035Z,41.26
2023-03-12T04:38:30.741Z,40.78
2023-03-12T04:41:04.821Z,41.01
2023-03-12T04:43:32.363Z,41.76
2023-03-12T04:45:59.106Z,40.66
2023-03-12T04:48:26.190Z,40.60
2023-03-12T04:50:53.281Z,40.45
2023-03-12T04:53:20.600Z,41.26
2023-03-12T04:55:47.597Z,40.93
2023-03-12T04:58:14.294Z,40.08
2023-03-12T05:00:41.443Z,39.80
2023-03-12T05:03:08.936Z,40.06
2023-03-12T05:05:35.982Z,39.63
2023-03-12T05:08:03.411Z,39.90
2023-03-12T05:10:30.036Z,39.52
2023-03-12T05:12:56.651Z,40.13
2023-03-12T05:15:23.166Z,39.25
2023-03-12T05:17:49.718Z,39.25
2023-03-12T05:20:17.699Z,39.27
2023-03-12T05:22:44.498Z,39.82
2023-03-12T05:25:11.490Z,39.09
2023-03-12T05:27:38.414Z,39.93
2023-03-12T05:30:06.487Z,40.09
2023-03-12T05:32:33.381Z,40.32
2023-03-12T05:34:59.896Z,40.10
2023-03-12T05:37:26.350Z,40.46
2023-03-12T05:39:54.642Z,40.02
2023-03-12T05:42:21.179Z,40.10
2023-03-12T05:44:47.718Z,40.07
2023-03-12T05:47:14.198Z,40.77
2023-03-12T05:49:40.833Z,40.17
2023-03-12T05:52:07.422Z,40.61
2023-03-12T05:54:33.968Z,41.25
2023-03-12T05:57:00.629Z,40.74
2023-03-12T05:59:27.228Z,40.75
2023-03-12T06:01:53.902Z,41.45
2023-03-12T06:04:20.468Z,40.97
2023-03-12T06:06:47.523Z,41.10
2023-03-12T06:09:14.079Z,41.22
2023-03-12T06:11:40.637Z,41.19
2023-03-12T06:14:07.150Z,41.46
2023-03-12T06:16:33.801Z,41.53
2023-03-12T06:19:02.501Z,42.42
2023-03-12T06:21:31.570Z,41.28
2023-03-12T06:23:58.659Z,41.53
2023-03-12T06:26:25.973Z,41.70
2023-03-12T06:28:53.259Z,41.40
2023-03-12T06:31:21.259Z,40.49
2023-03-12T06:33:47.845Z,40.52
2023-03-12T06:36:14.454Z,41.14
2023-03-12T06:38:41.090Z,41.13
2023-03-12T06:41:14.157Z,40.13
2023-03-12T06:43:41.636Z,40.50
2023-03-12T06:46:12.210Z,40.70
2023-03-12T06:48:41.265Z,40.23
2023-03-12T06:51:13.195Z,40.71
2023-03-12T06:53:42.260Z,39.66
2023-03-12T06:56:09.910Z,40.15
2023-03-12T06:58:36.790Z,39.75
2023-03-12T07:01:04.220Z,40.23
2023-03-12T07:03:31.233Z,39.74
2023-03-12T07:05:58.444Z,39.36
2023-03-12T07:08:26.571Z,39.35
2023-03-12T07:10:53.071Z,38.91
2023-03-12T07:13:19.641Z,38.97
2023-03-12T07:15:46.551Z,39.50
2023-03-12T07:18:13.701Z,39.12
2023-03-12T07:20:42.260Z,38.79
2023-03-12T07:23:09.647Z,39.05
2023-03-12T07:25:38.558Z,38.97
2023-03-12T07:28:05.442Z,39.08
2023-03-12T07:30:33.665Z,38.92
2023-03-12T07:33:12.021Z,38.87
2023-03-12T07:35:39.764Z,39.30
2023-03-12T07:38:07.301Z,38.85
2023-03-12T07:40:34.702Z,38.83
2023-03-12T07:43:02.220Z,38.97
2023-03-12T07:45:28.838Z,38.86
2023-03-12T07:47:55.512Z,38.85
2023-03-12T07:50:22.171Z,38.83
2023-03-12T07:52:49.264Z,39.26
2023-03-12T07:55:16.476Z,38.98
2023-03-12T07:57:43.109Z,38.99
2023-03-12T08:00:10.807Z,39.12
2023-03-12T08:02:37.727Z,38.97
2023-03-12T08:05:04.979Z,39.07
2023-03-12T08:07:32.590Z,39.02
2023-03-12T08:10:00.119Z,39.43
2023-03-12T08:12:27.250Z,39.29
2023-03-12T08:14:53.941Z,39.72
2023-03-12T08:17:20.588Z,39.22
2023-03-12T08:19:47.191Z,39.59
2023-03-12T08:22:13.738Z,39.34
2023-03-12T08:24:40.500Z,40.02
2023-03-12T08:27:07.066Z,39.91
2023-03-12T08:29:33.611Z,40.36
2023-03-12T08:32:05.056Z,40.42
2023-03-12T08:34:33.409Z,40.23
2023-03-12T08:37:00.053Z,39.75
2023-03-12T08:39:26.648Z,39.84
2023-03-12T08:41:55.356Z,40.56
2023-03-12T08:44:23.312Z,40.15
2023-03-12T08:46:50.408Z,40.78
2023-03-12T08:49:17.392Z,40.71
2023-03-12T08:51:43.982Z,40.23
2023-03-12T08:54:10.626Z,40.49
2023-03-12T08:56:41.782Z,41.11
2023-03-12T08:59:12.060Z,41.03
2023-03-12T09:01:41.782Z,41.36
2023-03-12T09:04:10.138Z,41.23
2023-03-12T09:06:38.372Z,41.17
2023-03-12T09:09:05.738Z,40.96
2023-03-12T09:11:34.122Z,41.04
2023-03-12T09:14:46.261Z,41.18
2023-03-12T09:16:48.323Z,41.29
2023-03-12T09:19:15.805Z,40.13
2023-03-12T09:21:42.496Z,40.60
2023-03-12T09:24:10.024Z,40.95
2023-03-12T09:26:36.537Z,40.24
2023-03-12T09:29:03.304Z,40.46
2023-03-12T09:31:32.956Z,40.04
2023-03-12T09:33:59.517Z,40.39
2023-03-12T09:36:26.135Z,40.76
2023-03-12T09:38:52.761Z,40.24
2023-03-12T09:41:27.385Z,40.48
2023-03-12T09:44:02.158Z,40.56
2023-03-12T09:46:35.298Z,40.35
2023-03-12T09:49:10.803Z,40.87
2023-03-12T09:51:45.863Z,40.83
2023-03-12T09:54:36.651Z,41.32
2023-03-12T09:57:09.404Z,41.16
2023-03-12T09:59:37.015Z,40.82
2023-03-12T10:02:18.388Z,41.30
2023-03-12T10:04:59.855Z,40.83
2023-03-12T10:07:31.450Z,41.19
2023-03-12T10:10:30.508Z,41.30
2023-03-12T10:13:25.354Z,41.65
2023-03-12T10:16:22.088Z,41.84
2023-03-12T10:19:10.640Z,41.81
2023-03-12T10:21:58.879Z,42.19
2023-03-12T10:24:51.529Z,42.11
2023-03-12T10:27:18.953Z,41.64
2023-03-12T10:29:49.173Z,41.99
2023-03-12T10:32:21.993Z,41.82
2023-03-12T10:35:13.072Z,41.77
2023-03-12T10:37:44.922Z,41.79
2023-03-12T10:40:17.737Z,42.18
2023-03-12T10:42:44.396Z,41.90
2023-03-12T10:45:10.865Z,41.56
2023-03-12T10:47:44.725Z,41.46
2023-03-12T10:50:29.733Z,41.94
2023-03-12T10:53:22.566Z,41.31
2023-03-12T10:56:05.637Z,42.16
2023-03-12T10:58:42.266Z,41.87
2023-03-12T11:01:14.822Z,41.67
2023-03-12T11:03:42.778Z,41.92
2023-03-12T11:06:15.537Z,41.69
2023-03-12T11:08:43.098Z,42.00
2023-03-12T11:11:10.390Z,41.63
2023-03-12T11:13:41.821Z,41.76
2023-03-12T11:16:17.642Z,41.87
2023-03-12T11:19:02.084Z,42.14
2023-03-12T11:21:29.934Z,41.89
2023-03-12T11:23:56.405Z,41.76
2023-03-12T11:26:36.648Z,42.09
2023-03-12T11:29:17.368Z,42.01
2023-03-12T11:31:57.821Z,41.97
2023-03-12T11:34:31.046Z,42.10
2023-03-12T11:37:26.542Z,41.88
2023-03-12T11:40:30.539Z,42.44
2023-03-12T11:43:41.732Z,42.06
2023-03-12T11:46:18.382Z,42.03
2023-03-12T11:49:03.517Z,41.39
2023-03-12T11:51:52.189Z,41.73
2023-03-12T11:54:38.631Z,41.48
2023-03-12T11:57:26.531Z,41.53
2023-03-12T12:00:17.322Z,41.73
2023-03-12T12:02:56.092Z,41.67
2023-03-12T12:05:27.533Z,41.76
2023-03-12T12:08:03.148Z,41.26
2023-03-12T12:10:47.233Z,41.57
2023-03-12T12:13:41.626Z,41.04
2023-03-12T12:16:42.538Z,41.78
2023-03-12T12:19:28.048Z,40.83
2023-03-12T12:22:37.833Z,41.43
2023-03-12T12:25:38.936Z,41.23
2023-03-12T12:28:15.593Z,40.62
2023-03-12T12:31:13.666Z,41.08
2023-03-12T12:33:50.522Z,40.28
2023-03-12T12:36:18.380Z,40.96
2023-03-12T12:39:11.414Z,40.49
2023-03-12T12:41:43.064Z,40.58
2023-03-12T12:44:36.304Z,40.39
2023-03-12T12:47:06.843Z,40.16
2023-03-12T12:49:51.037Z,40.31
2023-03-12T12:52:22.069Z,40.69
2023-03-12T12:55:04.614Z,40.06
2023-03-12T12:57:36.176Z,40.25
2023-03-12T13:00:22.093Z,40.20
2023-03-12T13:02:50.451Z,40.60
2023-03-12T13:05:45.902Z,41.03
2023-03-12T13:08:34.504Z,40.78
2023-03-12T13:11:22.227Z,41.07
2023-03-12T13:14:11.372Z,41.04
2023-03-12T13:16:40.088Z,41.03
2023-03-12T13:19:27.504Z,40.59
2023-03-12T13:22:26.319Z,40.90
2023-03-12T13:25:14.391Z,40.84
2023-03-12T13:27:44.465Z,41.02
2023-03-12T13:30:33.000Z,40.71
2023-03-12T13:33:04.114Z,40.76
2023-03-12T13:35:36.484Z,41.00
2023-03-12T13:38:06.708Z,41.25
2023-03-12T13:40:36.313Z,41.08
2023-03-12T13:43:14.564Z,41.52
2023-03-12T13:45:47.068Z,40.87
2023-03-12T13:48:20.674Z,41.12
2023-03-12T13:50:55.425Z,41.67
2023-03-12T13:53:32.302Z,41.64
2023-03-12T13:56:10.602Z,41.57
2023-03-12T13:59:00.152Z,41.57
2023-03-12T14:01:36.118Z,41.30
2023-03-12T14:04:08.793Z,41.09
2023-03-12T14:06:56.238Z,41.76
2023-03-12T14:09:41.503Z,41.70
2023-03-12T14:12:20.312Z,41.58
2023-03-12T14:15:18.921Z,41.67
2023-03-12T14:17:45.978Z,42.05
2023-03-12T14:20:21.410Z,41.57
2023-03-12T14:23:12.808Z,42.01
2023-03-12T14:25:43.634Z,41.60
2023-03-12T14:28:20.983Z,41.86
2023-03-12T14:31:01.079Z,41.16
2023-03-12T14:33:33.458Z,41.64
2023-03-12T14:36:12.225Z,41.45
2023-03-12T14:38:44.613Z,41.70
2023-03-12T14:41:19.915Z,41.88
2023-03-12T14:43:46.573Z,41.74
2023-03-12T14:46:20.025Z,41.42
2023-03-12T14:48:51.760Z,41.99
2023-03-12T14:51:24.615Z,41.26
2023-03-12T14:53:52.493Z,41.96
2023-03-12T14:56:30.407Z,41.60
2023-03-12T14:58:58.972Z,41.46
2023-03-12T15:01:32.419Z,41.92
2023-03-12T15:04:03.618Z,41.84
2023-03-12T15:06:36.529Z,41.89
2023-03-12T15:09:05.773Z,41.77
2023-03-12T15:11:35.869Z,41.91
2023-03-12T15:14:14.427Z,41.69
2023-03-12T15:16:43.381Z,41.60
2023-03-12T15:19:14.027Z,41.63
2023-03-12T15:21:40.703Z,42.01
2023-03-12T15:24:11.648Z,42.20
2023-03-12T15:26:38.260Z,42.20
2023-03-12T15:29:13.946Z,41.95
2023-03-12T15:31:45.987Z,42.12
2023-03-12T15:34:18.420Z,41.85
2023-03-12T15:36:48.091Z,42.54
2023-03-12T15:39:31.004Z,41.99
2023-03-12T15:42:07.625Z,42.30
2023-03-12T15:44:47.950Z,41.74
2023-03-12T15:47:18.734Z,41.83
2023-03-12T15:50:09.940Z,41.52
2023-03-12T15:52:37.859Z,41.78
2023-03-12T15:55:12.923Z,41.50
2023-03-12T15:57:49.965Z,41.40
2023-03-12T16:00:21.801Z,41.44
2023-03-12T16:03:03.978Z,40.95
2023-03-12T16:05:34.066Z,40.82
2023-03-12T16:08:31.672Z,41.04
2023-03-12T16:10:58.212Z,41.41
2023-03-12T16:13:31.177Z,41.18
2023-03-12T16:15:58.593Z,41.17
2023-03-12T16:18:25.285Z,41.25
2023-03-12T16:20:52.992Z,40.78
2023-03-12T16:23:19.648Z,40.95
2023-03-12T16:25:49.197Z,40.49
2023-03-12T16:28:18.611Z,40.81
2023-03-12T16:30:45.313Z,40.66
2023-03-12T16:33:14.654Z,40.50
2023-03-12T16:35:41.278Z,40.64
2023-03-12T16:38:10.600Z,40.39
2023-03-12T16:40:39.760Z,40.34
2023-03-12T16:43:14.651Z,40.27
2023-03-12T16:45:46.825Z,40.19
2023-03-12T16:48:21.652Z,40.41
2023-03-12T16:50:51.240Z,40.13
2023-03-12T16:53:18.814Z,39.92
2023-03-12T16:55:52.066Z,39.97
2023-03-12T16:58:20.548Z,39.93
2023-03-12T17:00:48.108Z,39.86
2023-03-12T17:03:49.207Z,39.56
2023-03-12T17:06:22.016Z,40.10
2023-03-12T17:08:48.654Z,39.84
2023-03-12T17:11:24.810Z,39.88
2023-03-12T17:13:58.634Z,40.36
2023-03-12T17:16:25.279Z,40.10
2023-03-12T17:18:51.886Z,40.30
2023-03-12T17:21:20.144Z,40.52
2023-03-12T17:23:50.191Z,40.42
2023-03-12T17:26:18.594Z,40.54
2023-03-12T17:28:45.164Z,40.52
2023-03-12T17:31:11.740Z,40.84
2023-03-12T17:33:38.501Z,40.47
2023-03-12T17:36:08.001Z,40.99
2023-03-12T17:38:35.554Z,41.04
2023-03-12T17:41:02.532Z,41.13
2023-03-12T17:43:29.575Z,41.21
2023-03-12T17:45:56.165Z,41.64
2023-03-12T17:48:25.735Z,41.89
2023-03-12T17:50:52.299Z,41.80
2023-03-12T17:53:19.976Z,41.52
2023-03-12T17:55:47.578Z,42.19
2023-03-12T17:58:14.057Z,42.14
2023-03-12T18:00:40.595Z,41.79
2023-03-12T18:03:07.175Z,42.11
2023-03-12T18:05:33.698Z,42.35
2023-03-12T18:08:00.196Z,42.16
2023-03-12T18:10:26.726Z,42.03
2023-03-12T18:12:53.295Z,41.78
2023-03-12T18:15:19.857Z,42.46
2023-03-12T18:17:49.655Z,41.96
2023-03-12T18:20:25.881Z,41.43
2023-03-12T18:23:01.892Z,41.88
2023-03-12T18:25:28.501Z,41.35
2023-03-12T18:27:56.646Z,41.46
2023-03-12T18:30:23.211Z,41.47
2023-03-12T18:32:49.835Z,41.08
2023-03-12T18:35:16.561Z,41.06
2023-03-12T18:37:45.437Z,41.17
2023-03-12T18:40:12.624Z,41.16
2023-03-12T18:42:46.489Z,40.82
2023-03-12T18:45:13.227Z,41.40
2023-03-12T18:47:39.779Z,41.48
2023-03-12T18:50:08.012Z,41.01
2023-03-12T18:52:34.833Z,41.46
2023-03-12T18:55:01.639Z,41.66
2023-03-12T18:57:28.446Z,41.79
2023-03-12T18:59:55.215Z,41.69
2023-03-12T19:02:22.280Z,41.84
2023-03-12T19:04:49.369Z,41.73
2023-03-12T19:07:17.851Z,42.30
2023-03-12T19:09:44.340Z,41.91
2023-03-12T19:12:10.869Z,42.05
2023-03-12T19:14:37.698Z,42.16
2023-03-12T19:17:04.477Z,41.77
2023-03-12T19:19:30.956Z,41.92
2023-03-12T19:21:57.497Z,42.40
2023-03-12T19:24:24.223Z,42.79
2023-03-12T19:26:50.785Z,42.81
2023-03-12T19:29:17.334Z,43.01
2023-03-12T19:31:43.903Z,43.50
2023-03-12T19:34:10.475Z,42.78
2023-03-12T19:36:36.959Z,43.32
2023-03-12T19:39:06.680Z,43.01
2023-03-12T19:41:40.653Z,43.15
2023-03-12T19:44:07.269Z,42.70
2023-03-12T19:46:33.845Z,42.49
2023-03-12T19:49:00.406Z,42.54
2023-03-12T19:51:27.066Z,42.88
2023-03-12T19:53:53.591Z,43.22
2023-03-12T19:56:21.066Z,43.52
2023-03-12T19:58:48.265Z,42.78
2023-03-12T20:01:14.789Z,42.87
2023-03-12T20:03:43.897Z,43.34
2023-03-12T20:06:11.654Z,43.69
2023-03-12T20:08:38.497Z,43.24
2023-03-12T20:11:07.848Z,43.40
2023-03-12T20:13:35.398Z,43.98
2023-03-12T20:16:02.382Z,43.18
2023-03-12T20:18:28.948Z,43.52
2023-03-12T20:20:55.608Z,43.44
2023-03-12T20:23:22.198Z,43.79
2023-03-12T20:25:50.175Z,43.26
2023-03-12T20:28:17.138Z,43.73
2023-03-12T20:30:44.154Z,43.67
2023-03-12T20:33:10.717Z,44.02
2023-03-12T20:35:37.892Z,43.71
2023-03-12T20:38:04.527Z,43.76
2023-03-12T20:40:31.298Z,44.30
2023-03-12T20:42:57.869Z,44.31
2023-03-12T20:45:24.364Z,44.10
2023-03-12T20:47:51.108Z,44.10
2023-03-12T20:50:17.784Z,44.27
2023-03-12T20:52:45.027Z,44.34
2023-03-12T20:55:11.630Z,44.45
2023-03-12T20:57:38.188Z,44.55
2023-03-12T21:00:05.540Z,44.35
2023-03-12T21:02:32.193Z,44.20
2023-03-12T21:04:58.729Z,44.24
2023-03-12T21:07:25.357Z,44.63
2023-03-12T21:09:51.868Z,44.69
2023-03-12T21:12:18.555Z,44.43
2023-03-12T21:14:45.132Z,44.85
2023-03-12T21:17:13.739Z,44.79
2023-03-12T21:19:41.691Z,45.03
2023-03-12T21:22:08.789Z,45.03
2023-03-12T21:24:35.955Z,44.64
2023-03-12T21:27:02.553Z,44.78
2023-03-12T21:29:29.132Z,44.65
2023-03-12T21:31:55.746Z,44.98
2023-03-12T21:34:23.200Z,45.01
2023-03-12T21:36:49.724Z,44.92
2023-03-12T21:39:17.201Z,44.85
2023-03-12T21:41:43.742Z,45.25
2023-03-12T21:44:10.280Z,45.13
2023-03-12T21:46:36.973Z,45.06
2023-03-12T21:49:03.700Z,45.17
2023-03-12T21:51:30.312Z,44.95
2023-03-12T21:53:58.132Z,45.32
2023-03-12T21:56:28.047Z,44.87
2023-03-12T21:58:56.947Z,45.08
2023-03-12T22:01:24.691Z,45.00
2023-03-12T22:03:51.547Z,44.62
2023-03-12T22:06:18.115Z,45.25
2023-03-12T22:08:49.209Z,45.35
2023-03-12T22:11:16.665Z,45.01
2023-03-12T22:13:43.321Z,45.20
2023-03-12T22:16:12.903Z,45.38
2023-03-12T22:18:41.980Z,45.12
2023-03-12T22:21:14.743Z,45.11
2023-03-12T22:23:41.247Z,45.32
2023-03-12T22:26:08.068Z,45.23
2023-03-12T22:28:35.486Z,45.09
2023-03-12T22:31:07.553Z,45.42
2023-03-12T22:33:37.066Z,45.34
2023-03-12T22:36:08.513Z,45.11
2023-03-12T22:38:36.714Z,45.15
2023-03-12T22:41:27.021Z,45.18
2023-03-12T22:43:56.132Z,45.24
2023-03-12T22:46:24.728Z,45.40
2023-03-12T22:48:57.369Z,45.33
2023-03-12T22:51:24.435Z,45.30
2023-03-12T22:53:51.399Z,45.33
2023-03-12T22:56:18.134Z,45.28
2023-03-12T22:58:44.909Z,45.37
2023-03-12T23:01:14.091Z,45.20
2023-03-12T23:03:42.572Z,44.96
2023-03-12T23:06:15.342Z,45.26
2023-03-12T23:08:42.216Z,45.09
2023-03-12T23:11:10.304Z,45.26
2023-03-12T23:13:39.098Z,45.26
2023-03-12T23:16:11.619Z,45.35
2023-03-12T23:18:38.482Z,45.52
2023-03-12T23:21:08.041Z,45.42
2023-03-12T23:23:35.595Z,45.31
2023-03-12T23:26:03.260Z,45.51
2023-03-12T23:28:32.171Z,45.31
2023-03-12T23:31:07.510Z,45.29
2023-03-12T23:33:34.969Z,45.43
2023-03-12T23:36:07.400Z,45.37
2023-03-12T23:38:37.509Z,45.22
2023-03-12T23:41:10.250Z,45.43
2023-03-12T23:43:36.738Z,45.04
2023-03-12T23:46:05.164Z,45.32
2023-03-12T23:48:33.200Z,45.27
2023-03-12T23:51:14.391Z,45.28
2023-03-12T23:53:43.005Z,45.54
2023-03-12T23:56:12.666Z,45.23
2023-03-12T23:58:39.213Z,45.57
